sensor_id;sensor_type;location;lat;lon;timestamp;P1;durP1;ratioP1;P2;durP2;ratioP2
10947;SDS011;5526;42.070;24.752;2023-02-24T00:01:41;11.90;;;6.72;;
10947;SDS011;5526;42.070;24.752;2023-02-24T00:04:10;9.60;;;7.03;;
10947;SDS011;5526;42.070;24.752;2023-02-24T00:06:40;12.05;;;6.80;;
10947;SDS011;5526;42.070;24.752;2023-02-24T00:09:09;8.80;;;6.53;;
10947;SDS011;5526;42.070;24.752;2023-02-24T00:11:40;9.90;;;6.85;;
10947;SDS011;5526;42.070;24.752;2023-02-24T00:14:10;10.45;;;7.30;;
10947;SDS011;5526;42.070;24.752;2023-02-24T00:16:40;10.40;;;7.25;;
10947;SDS011;5526;42.070;24.752;2023-02-24T00:19:10;13.70;;;7.28;;
10947;SDS011;5526;42.070;24.752;2023-02-24T00:21:39;10.20;;;7.53;;
10947;SDS011;5526;42.070;24.752;2023-02-24T00:24:06;15.60;;;7.70;;
10947;SDS011;5526;42.070;24.752;2023-02-24T00:26:34;10.48;;;7.57;;
10947;SDS011;5526;42.070;24.752;2023-02-24T00:29:02;13.23;;;8.00;;
10947;SDS011;5526;42.070;24.752;2023-02-24T00:31:30;14.82;;;8.57;;
10947;SDS011;5526;42.070;24.752;2023-02-24T00:33:58;12.15;;;8.35;;
10947;SDS011;5526;42.070;24.752;2023-02-24T00:36:28;13.32;;;9.30;;
10947;SDS011;5526;42.070;24.752;2023-02-24T00:38:58;14.52;;;9.32;;
10947;SDS011;5526;42.070;24.752;2023-02-24T00:41:27;16.13;;;9.65;;
10947;SDS011;5526;42.070;24.752;2023-02-24T00:43:56;17.02;;;11.13;;
10947;SDS011;5526;42.070;24.752;2023-02-24T00:46:30;17.08;;;10.68;;
10947;SDS011;5526;42.070;24.752;2023-02-24T00:49:00;14.73;;;10.80;;
10947;SDS011;5526;42.070;24.752;2023-02-24T00:51:33;19.42;;;12.73;;
10947;SDS011;5526;42.070;24.752;2023-02-24T00:54:01;20.42;;;12.75;;
10947;SDS011;5526;42.070;24.752;2023-02-24T00:56:29;17.55;;;12.55;;
10947;SDS011;5526;42.070;24.752;2023-02-24T00:58:57;22.80;;;13.38;;
10947;SDS011;5526;42.070;24.752;2023-02-24T01:01:25;18.10;;;12.43;;
10947;SDS011;5526;42.070;24.752;2023-02-24T01:03:55;20.67;;;13.18;;
10947;SDS011;5526;42.070;24.752;2023-02-24T01:06:23;22.02;;;12.52;;
10947;SDS011;5526;42.070;24.752;2023-02-24T01:08:53;24.55;;;13.50;;
10947;SDS011;5526;42.070;24.752;2023-02-24T01:11:22;22.63;;;13.70;;
10947;SDS011;5526;42.070;24.752;2023-02-24T01:14:10;19.27;;;14.25;;
10947;SDS011;5526;42.070;24.752;2023-02-24T01:16:38;19.73;;;13.32;;
10947;SDS011;5526;42.070;24.752;2023-02-24T01:19:06;22.17;;;14.43;;
10947;SDS011;5526;42.070;24.752;2023-02-24T01:21:33;20.52;;;14.80;;
10947;SDS011;5526;42.070;24.752;2023-02-24T01:24:02;21.75;;;15.20;;
10947;SDS011;5526;42.070;24.752;2023-02-24T01:26:29;23.00;;;14.85;;
10947;SDS011;5526;42.070;24.752;2023-02-24T01:28:56;23.85;;;14.40;;
10947;SDS011;5526;42.070;24.752;2023-02-24T01:31:23;22.50;;;15.35;;
10947;SDS011;5526;42.070;24.752;2023-02-24T01:33:52;21.90;;;15.52;;
10947;SDS011;5526;42.070;24.752;2023-02-24T01:36:22;24.45;;;15.63;;
10947;SDS011;5526;42.070;24.752;2023-02-24T01:38:51;25.40;;;15.48;;
10947;SDS011;5526;42.070;24.752;2023-02-24T01:41:21;23.88;;;15.95;;
10947;SDS011;5526;42.070;24.752;2023-02-24T01:43:53;25.65;;;16.23;;
10947;SDS011;5526;42.070;24.752;2023-02-24T01:46:23;25.48;;;16.05;;
10947;SDS011;5526;42.070;24.752;2023-02-24T01:48:51;24.23;;;15.82;;
10947;SDS011;5526;42.070;24.752;2023-02-24T01:51:23;23.73;;;16.05;;
10947;SDS011;5526;42.070;24.752;2023-02-24T01:53:52;26.17;;;15.40;;
10947;SDS011;5526;42.070;24.752;2023-02-24T01:56:21;21.92;;;15.00;;
10947;SDS011;5526;42.070;24.752;2023-02-24T01:58:48;23.98;;;14.32;;
10947;SDS011;5526;42.070;24.752;2023-02-24T02:01:15;21.38;;;14.38;;
10947;SDS011;5526;42.070;24.752;2023-02-24T02:03:44;23.92;;;14.98;;
10947;SDS011;5526;42.070;24.752;2023-02-24T02:06:13;24.35;;;15.38;;
10947;SDS011;5526;42.070;24.752;2023-02-24T02:08:42;31.05;;;16.13;;
10947;SDS011;5526;42.070;24.752;2023-02-24T02:11:11;23.58;;;15.38;;
10947;SDS011;5526;42.070;24.752;2023-02-24T02:13:45;24.80;;;15.02;;
10947;SDS011;5526;42.070;24.752;2023-02-24T02:16:20;24.27;;;14.15;;
10947;SDS011;5526;42.070;24.752;2023-02-24T02:18:59;28.25;;;14.27;;
10947;SDS011;5526;42.070;24.752;2023-02-24T02:21:49;21.98;;;13.45;;
10947;SDS011;5526;42.070;24.752;2023-02-24T02:24:46;20.15;;;13.10;;
10947;SDS011;5526;42.070;24.752;2023-02-24T02:30:26;25.13;;;13.95;;
10947;SDS011;5526;42.070;24.752;2023-02-24T02:36:26;19.55;;;12.20;;
10947;SDS011;5526;42.070;24.752;2023-02-24T02:38:59;21.27;;;11.30;;
10947;SDS011;5526;42.070;24.752;2023-02-24T02:41:33;17.73;;;10.85;;
10947;SDS011;5526;42.070;24.752;2023-02-24T02:44:07;16.90;;;10.27;;
10947;SDS011;5526;42.070;24.752;2023-02-24T02:46:40;17.20;;;10.57;;
10947;SDS011;5526;42.070;24.752;2023-02-24T02:49:14;16.85;;;9.32;;
10947;SDS011;5526;42.070;24.752;2023-02-24T02:51:47;17.70;;;9.15;;
10947;SDS011;5526;42.070;24.752;2023-02-24T02:54:18;17.25;;;9.65;;
10947;SDS011;5526;42.070;24.752;2023-02-24T02:56:52;19.27;;;8.38;;
10947;SDS011;5526;42.070;24.752;2023-02-24T02:59:25;15.90;;;8.48;;
10947;SDS011;5526;42.070;24.752;2023-02-24T03:01:55;16.30;;;8.85;;
10947;SDS011;5526;42.070;24.752;2023-02-24T03:04:38;16.00;;;7.97;;
10947;SDS011;5526;42.070;24.752;2023-02-24T03:07:07;15.82;;;8.57;;
10947;SDS011;5526;42.070;24.752;2023-02-24T03:09:37;14.50;;;7.75;;
10947;SDS011;5526;42.070;24.752;2023-02-24T03:12:10;13.25;;;8.02;;
10947;SDS011;5526;42.070;24.752;2023-02-24T03:14:42;12.00;;;8.00;;
10947;SDS011;5526;42.070;24.752;2023-02-24T03:17:16;18.33;;;9.10;;
10947;SDS011;5526;42.070;24.752;2023-02-24T03:19:51;17.50;;;8.35;;
10947;SDS011;5526;42.070;24.752;2023-02-24T03:22:26;17.50;;;8.38;;
10947;SDS011;5526;42.070;24.752;2023-02-24T03:25:00;13.93;;;8.30;;
10947;SDS011;5526;42.070;24.752;2023-02-24T03:27:30;14.15;;;8.30;;
10947;SDS011;5526;42.070;24.752;2023-02-24T03:30:03;14.30;;;7.82;;
10947;SDS011;5526;42.070;24.752;2023-02-24T03:32:37;15.90;;;7.90;;
10947;SDS011;5526;42.070;24.752;2023-02-24T03:35:16;14.80;;;7.60;;
10947;SDS011;5526;42.070;24.752;2023-02-24T03:37:46;16.55;;;8.13;;
10947;SDS011;5526;42.070;24.752;2023-02-24T03:40:15;15.75;;;7.85;;
10947;SDS011;5526;42.070;24.752;2023-02-24T03:42:45;13.55;;;7.22;;
10947;SDS011;5526;42.070;24.752;2023-02-24T03:45:14;12.35;;;7.10;;
10947;SDS011;5526;42.070;24.752;2023-02-24T03:47:42;14.25;;;6.80;;
10947;SDS011;5526;42.070;24.752;2023-02-24T03:50:11;12.52;;;7.75;;
10947;SDS011;5526;42.070;24.752;2023-02-24T03:52:41;14.23;;;7.10;;
10947;SDS011;5526;42.070;24.752;2023-02-24T03:55:15;12.80;;;7.03;;
10947;SDS011;5526;42.070;24.752;2023-02-24T03:57:55;12.20;;;6.70;;
10947;SDS011;5526;42.070;24.752;2023-02-24T04:00:32;13.95;;;6.93;;
10947;SDS011;5526;42.070;24.752;2023-02-24T04:03:11;15.90;;;9.77;;
10947;SDS011;5526;42.070;24.752;2023-02-24T04:05:50;14.48;;;7.32;;
10947;SDS011;5526;42.070;24.752;2023-02-24T04:08:25;16.20;;;6.65;;
10947;SDS011;5526;42.070;24.752;2023-02-24T04:10:59;14.02;;;6.35;;
10947;SDS011;5526;42.070;24.752;2023-02-24T04:13:32;12.80;;;6.45;;
10947;SDS011;5526;42.070;24.752;2023-02-24T04:16:05;11.35;;;6.15;;
10947;SDS011;5526;42.070;24.752;2023-02-24T04:18:41;13.90;;;6.53;;
10947;SDS011;5526;42.070;24.752;2023-02-24T04:21:13;13.05;;;6.35;;
10947;SDS011;5526;42.070;24.752;2023-02-24T04:23:44;13.77;;;6.18;;
10947;SDS011;5526;42.070;24.752;2023-02-24T04:26:12;13.55;;;6.40;;
10947;SDS011;5526;42.070;24.752;2023-02-24T04:28:43;13.88;;;6.18;;
10947;SDS011;5526;42.070;24.752;2023-02-24T04:31:12;14.30;;;6.20;;
10947;SDS011;5526;42.070;24.752;2023-02-24T04:33:43;14.40;;;6.20;;
10947;SDS011;5526;42.070;24.752;2023-02-24T04:36:15;12.05;;;6.22;;
10947;SDS011;5526;42.070;24.752;2023-02-24T04:38:43;12.68;;;6.72;;
10947;SDS011;5526;42.070;24.752;2023-02-24T04:41:11;13.07;;;6.63;;
10947;SDS011;5526;42.070;24.752;2023-02-24T04:43:45;11.30;;;6.22;;
10947;SDS011;5526;42.070;24.752;2023-02-24T04:46:15;14.25;;;5.90;;
10947;SDS011;5526;42.070;24.752;2023-02-24T04:48:42;11.98;;;5.75;;
10947;SDS011;5526;42.070;24.752;2023-02-24T04:51:09;12.40;;;5.90;;
10947;SDS011;5526;42.070;24.752;2023-02-24T04:53:38;11.02;;;5.60;;
10947;SDS011;5526;42.070;24.752;2023-02-24T04:56:06;11.13;;;5.28;;
10947;SDS011;5526;42.070;24.752;2023-02-24T04:58:34;13.85;;;6.35;;
10947;SDS011;5526;42.070;24.752;2023-02-24T05:01:05;10.35;;;5.40;;
10947;SDS011;5526;42.070;24.752;2023-02-24T05:03:35;10.48;;;6.05;;
10947;SDS011;5526;42.070;24.752;2023-02-24T05:06:06;12.98;;;6.28;;
10947;SDS011;5526;42.070;24.752;2023-02-24T05:08:38;11.00;;;5.65;;
10947;SDS011;5526;42.070;24.752;2023-02-24T05:11:10;11.45;;;6.20;;
10947;SDS011;5526;42.070;24.752;2023-02-24T05:13:40;14.70;;;6.05;;
10947;SDS011;5526;42.070;24.752;2023-02-24T05:16:10;11.93;;;5.35;;
10947;SDS011;5526;42.070;24.752;2023-02-24T05:18:39;15.05;;;5.93;;
10947;SDS011;5526;42.070;24.752;2023-02-24T05:21:07;12.38;;;6.18;;
10947;SDS011;5526;42.070;24.752;2023-02-24T05:23:53;10.52;;;5.90;;
10947;SDS011;5526;42.070;24.752;2023-02-24T05:26:24;13.23;;;5.70;;
10947;SDS011;5526;42.070;24.752;2023-02-24T05:28:51;11.50;;;5.53;;
10947;SDS011;5526;42.070;24.752;2023-02-24T05:31:21;12.40;;;5.93;;
10947;SDS011;5526;42.070;24.752;2023-02-24T05:33:51;13.70;;;6.00;;
10947;SDS011;5526;42.070;24.752;2023-02-24T05:36:21;15.55;;;6.35;;
10947;SDS011;5526;42.070;24.752;2023-02-24T05:38:50;13.00;;;6.15;;
10947;SDS011;5526;42.070;24.752;2023-02-24T05:41:22;15.15;;;6.35;;
10947;SDS011;5526;42.070;24.752;2023-02-24T05:43:57;13.75;;;5.95;;
10947;SDS011;5526;42.070;24.752;2023-02-24T05:46:29;10.85;;;5.70;;
10947;SDS011;5526;42.070;24.752;2023-02-24T05:48:58;14.88;;;6.65;;
10947;SDS011;5526;42.070;24.752;2023-02-24T05:51:27;12.13;;;5.88;;
10947;SDS011;5526;42.070;24.752;2023-02-24T05:53:59;12.88;;;6.78;;
10947;SDS011;5526;42.070;24.752;2023-02-24T05:56:30;13.45;;;6.68;;
10947;SDS011;5526;42.070;24.752;2023-02-24T05:58:58;14.10;;;6.55;;
10947;SDS011;5526;42.070;24.752;2023-02-24T06:01:28;10.73;;;6.22;;
10947;SDS011;5526;42.070;24.752;2023-02-24T06:03:57;12.80;;;6.22;;
10947;SDS011;5526;42.070;24.752;2023-02-24T06:06:31;12.85;;;5.88;;
10947;SDS011;5526;42.070;24.752;2023-02-24T06:09:00;14.43;;;6.43;;
10947;SDS011;5526;42.070;24.752;2023-02-24T06:11:34;16.80;;;7.00;;
10947;SDS011;5526;42.070;24.752;2023-02-24T06:14:02;16.48;;;7.05;;
10947;SDS011;5526;42.070;24.752;2023-02-24T06:16:31;13.63;;;7.10;;
10947;SDS011;5526;42.070;24.752;2023-02-24T06:18:59;17.65;;;6.63;;
10947;SDS011;5526;42.070;24.752;2023-02-24T06:21:26;15.50;;;7.28;;
10947;SDS011;5526;42.070;24.752;2023-02-24T06:23:54;17.50;;;8.20;;
10947;SDS011;5526;42.070;24.752;2023-02-24T06:26:22;17.70;;;8.30;;
10947;SDS011;5526;42.070;24.752;2023-02-24T06:28:55;18.08;;;7.82;;
10947;SDS011;5526;42.070;24.752;2023-02-24T06:31:23;20.05;;;8.20;;
10947;SDS011;5526;42.070;24.752;2023-02-24T06:33:51;14.95;;;7.28;;
10947;SDS011;5526;42.070;24.752;2023-02-24T06:36:19;17.45;;;7.72;;
10947;SDS011;5526;42.070;24.752;2023-02-24T06:38:46;29.48;;;11.15;;
10947;SDS011;5526;42.070;24.752;2023-02-24T06:41:16;25.38;;;10.15;;
10947;SDS011;5526;42.070;24.752;2023-02-24T06:43:44;25.98;;;12.07;;
10947;SDS011;5526;42.070;24.752;2023-02-24T06:46:14;25.08;;;12.00;;
10947;SDS011;5526;42.070;24.752;2023-02-24T06:48:41;27.80;;;11.75;;
10947;SDS011;5526;42.070;24.752;2023-02-24T06:51:09;23.92;;;11.35;;
10947;SDS011;5526;42.070;24.752;2023-02-24T06:53:39;28.65;;;12.77;;
10947;SDS011;5526;42.070;24.752;2023-02-24T06:56:09;23.55;;;12.15;;
10947;SDS011;5526;42.070;24.752;2023-02-24T06:58:40;25.55;;;12.25;;
10947;SDS011;5526;42.070;24.752;2023-02-24T07:01:10;28.30;;;12.32;;
10947;SDS011;5526;42.070;24.752;2023-02-24T07:03:39;27.33;;;13.60;;
10947;SDS011;5526;42.070;24.752;2023-02-24T07:06:12;24.27;;;14.68;;
10947;SDS011;5526;42.070;24.752;2023-02-24T07:08:48;25.92;;;14.32;;
10947;SDS011;5526;42.070;24.752;2023-02-24T07:11:17;37.40;;;18.85;;
10947;SDS011;5526;42.070;24.752;2023-02-24T07:13:44;37.28;;;17.42;;
10947;SDS011;5526;42.070;24.752;2023-02-24T07:16:13;33.53;;;18.77;;
10947;SDS011;5526;42.070;24.752;2023-02-24T07:18:42;34.38;;;18.15;;
10947;SDS011;5526;42.070;24.752;2023-02-24T07:21:13;30.75;;;16.05;;
10947;SDS011;5526;42.070;24.752;2023-02-24T07:23:42;28.00;;;15.55;;
10947;SDS011;5526;42.070;24.752;2023-02-24T07:26:14;29.77;;;15.98;;
10947;SDS011;5526;42.070;24.752;2023-02-24T07:28:43;30.40;;;16.52;;
10947;SDS011;5526;42.070;24.752;2023-02-24T07:31:12;30.65;;;15.73;;
10947;SDS011;5526;42.070;24.752;2023-02-24T07:33:42;31.95;;;18.23;;
10947;SDS011;5526;42.070;24.752;2023-02-24T07:36:11;34.65;;;19.48;;
10947;SDS011;5526;42.070;24.752;2023-02-24T07:38:40;34.08;;;19.48;;
10947;SDS011;5526;42.070;24.752;2023-02-24T07:41:08;27.65;;;16.77;;
10947;SDS011;5526;42.070;24.752;2023-02-24T07:43:37;29.33;;;15.90;;
10947;SDS011;5526;42.070;24.752;2023-02-24T07:46:05;30.30;;;16.63;;
10947;SDS011;5526;42.070;24.752;2023-02-24T07:48:33;27.30;;;15.95;;
10947;SDS011;5526;42.070;24.752;2023-02-24T07:51:02;28.90;;;15.98;;
10947;SDS011;5526;42.070;24.752;2023-02-24T07:53:32;27.42;;;15.48;;
10947;SDS011;5526;42.070;24.752;2023-02-24T07:55:59;28.42;;;16.48;;
10947;SDS011;5526;42.070;24.752;2023-02-24T07:58:31;27.85;;;14.63;;
10947;SDS011;5526;42.070;24.752;2023-02-24T08:01:00;26.98;;;16.20;;
10947;SDS011;5526;42.070;24.752;2023-02-24T08:03:33;28.30;;;15.85;;
10947;SDS011;5526;42.070;24.752;2023-02-24T08:06:07;32.30;;;18.63;;
10947;SDS011;5526;42.070;24.752;2023-02-24T08:08:40;36.45;;;18.95;;
10947;SDS011;5526;42.070;24.752;2023-02-24T08:11:23;30.58;;;18.10;;
10947;SDS011;5526;42.070;24.752;2023-02-24T08:13:50;35.92;;;18.23;;
10947;SDS011;5526;42.070;24.752;2023-02-24T08:16:18;30.52;;;18.83;;
10947;SDS011;5526;42.070;24.752;2023-02-24T08:18:45;32.10;;;17.77;;
10947;SDS011;5526;42.070;24.752;2023-02-24T08:21:16;36.03;;;18.25;;
10947;SDS011;5526;42.070;24.752;2023-02-24T08:23:45;37.05;;;18.88;;
10947;SDS011;5526;42.070;24.752;2023-02-24T08:26:12;32.40;;;19.13;;
10947;SDS011;5526;42.070;24.752;2023-02-24T08:28:40;30.50;;;19.05;;
10947;SDS011;5526;42.070;24.752;2023-02-24T08:31:08;31.35;;;17.60;;
10947;SDS011;5526;42.070;24.752;2023-02-24T08:33:36;35.60;;;18.33;;
10947;SDS011;5526;42.070;24.752;2023-02-24T08:36:04;31.45;;;17.38;;
10947;SDS011;5526;42.070;24.752;2023-02-24T08:38:33;31.73;;;17.77;;
10947;SDS011;5526;42.070;24.752;2023-02-24T08:41:13;29.27;;;18.42;;
10947;SDS011;5526;42.070;24.752;2023-02-24T08:43:44;30.30;;;17.33;;
10947;SDS011;5526;42.070;24.752;2023-02-24T08:46:13;34.35;;;19.20;;
10947;SDS011;5526;42.070;24.752;2023-02-24T08:48:44;36.42;;;19.35;;
10947;SDS011;5526;42.070;24.752;2023-02-24T08:51:13;34.70;;;18.75;;
10947;SDS011;5526;42.070;24.752;2023-02-24T08:53:48;41.45;;;25.50;;
10947;SDS011;5526;42.070;24.752;2023-02-24T08:56:18;40.80;;;20.98;;
10947;SDS011;5526;42.070;24.752;2023-02-24T08:58:49;39.90;;;21.65;;
10947;SDS011;5526;42.070;24.752;2023-02-24T09:01:22;38.97;;;21.17;;
10947;SDS011;5526;42.070;24.752;2023-02-24T09:03:52;32.03;;;18.55;;
10947;SDS011;5526;42.070;24.752;2023-02-24T09:06:22;34.15;;;20.00;;
10947;SDS011;5526;42.070;24.752;2023-02-24T09:08:55;33.92;;;19.67;;
10947;SDS011;5526;42.070;24.752;2023-02-24T09:11:35;32.53;;;19.88;;
10947;SDS011;5526;42.070;24.752;2023-02-24T09:14:08;30.75;;;18.90;;
10947;SDS011;5526;42.070;24.752;2023-02-24T09:16:41;28.83;;;19.80;;
10947;SDS011;5526;42.070;24.752;2023-02-24T09:19:26;34.50;;;19.75;;
10947;SDS011;5526;42.070;24.752;2023-02-24T09:22:21;33.92;;;19.52;;
10947;SDS011;5526;42.070;24.752;2023-02-24T09:25:10;38.90;;;19.65;;
10947;SDS011;5526;42.070;24.752;2023-02-24T09:27:46;36.92;;;20.02;;
10947;SDS011;5526;42.070;24.752;2023-02-24T09:30:17;36.83;;;19.63;;
10947;SDS011;5526;42.070;24.752;2023-02-24T09:33:09;33.83;;;18.63;;
10947;SDS011;5526;42.070;24.752;2023-02-24T09:35:49;33.20;;;19.10;;
10947;SDS011;5526;42.070;24.752;2023-02-24T09:38:18;33.28;;;19.88;;
10947;SDS011;5526;42.070;24.752;2023-02-24T09:41:06;36.33;;;21.42;;
10947;SDS011;5526;42.070;24.752;2023-02-24T09:43:54;38.50;;;21.67;;
10947;SDS011;5526;42.070;24.752;2023-02-24T09:46:24;33.33;;;20.80;;
10947;SDS011;5526;42.070;24.752;2023-02-24T09:48:53;32.25;;;19.60;;
10947;SDS011;5526;42.070;24.752;2023-02-24T09:51:29;33.38;;;20.70;;
10947;SDS011;5526;42.070;24.752;2023-02-24T09:54:10;33.10;;;20.30;;
10947;SDS011;5526;42.070;24.752;2023-02-24T09:56:43;33.53;;;20.98;;
10947;SDS011;5526;42.070;24.752;2023-02-24T09:59:31;29.30;;;20.15;;
10947;SDS011;5526;42.070;24.752;2023-02-24T10:02:19;28.08;;;19.52;;
10947;SDS011;5526;42.070;24.752;2023-02-24T10:04:59;25.02;;;18.35;;
10947;SDS011;5526;42.070;24.752;2023-02-24T10:07:34;26.20;;;18.45;;
10947;SDS011;5526;42.070;24.752;2023-02-24T10:10:05;23.83;;;17.92;;
10947;SDS011;5526;42.070;24.752;2023-02-24T10:12:47;30.50;;;19.50;;
10947;SDS011;5526;42.070;24.752;2023-02-24T10:15:18;26.50;;;18.08;;
10947;SDS011;5526;42.070;24.752;2023-02-24T10:18:24;26.98;;;17.73;;
10947;SDS011;5526;42.070;24.752;2023-02-24T10:20:56;29.63;;;17.85;;
10947;SDS011;5526;42.070;24.752;2023-02-24T10:23:29;26.30;;;18.70;;
10947;SDS011;5526;42.070;24.752;2023-02-24T10:26:10;27.52;;;17.67;;
10947;SDS011;5526;42.070;24.752;2023-02-24T10:28:56;27.10;;;18.33;;
10947;SDS011;5526;42.070;24.752;2023-02-24T10:31:35;25.80;;;17.67;;
10947;SDS011;5526;42.070;24.752;2023-02-24T10:34:11;29.85;;;18.25;;
10947;SDS011;5526;42.070;24.752;2023-02-24T10:36:44;27.27;;;17.23;;
10947;SDS011;5526;42.070;24.752;2023-02-24T10:39:15;27.23;;;18.35;;
10947;SDS011;5526;42.070;24.752;2023-02-24T10:41:50;23.58;;;16.38;;
10947;SDS011;5526;42.070;24.752;2023-02-24T10:44:23;22.67;;;16.42;;
10947;SDS011;5526;42.070;24.752;2023-02-24T10:47:00;26.02;;;16.67;;
10947;SDS011;5526;42.070;24.752;2023-02-24T10:49:40;22.27;;;16.38;;
10947;SDS011;5526;42.070;24.752;2023-02-24T10:52:21;28.20;;;16.67;;
10947;SDS011;5526;42.070;24.752;2023-02-24T10:55:19;25.02;;;16.58;;
10947;SDS011;5526;42.070;24.752;2023-02-24T10:58:03;24.92;;;15.40;;
10947;SDS011;5526;42.070;24.752;2023-02-24T11:00:40;21.63;;;15.13;;
10947;SDS011;5526;42.070;24.752;2023-02-24T11:03:37;21.70;;;15.93;;
10947;SDS011;5526;42.070;24.752;2023-02-24T11:06:17;20.38;;;15.23;;
10947;SDS011;5526;42.070;24.752;2023-02-24T11:09:13;21.02;;;16.15;;
10947;SDS011;5526;42.070;24.752;2023-02-24T11:11:57;20.77;;;14.63;;
10947;SDS011;5526;42.070;24.752;2023-02-24T11:14:47;22.25;;;16.02;;
10947;SDS011;5526;42.070;24.752;2023-02-24T11:17:36;21.15;;;15.57;;
10947;SDS011;5526;42.070;24.752;2023-02-24T11:20:14;23.98;;;15.07;;
10947;SDS011;5526;42.070;24.752;2023-02-24T11:22:49;23.58;;;16.67;;
10947;SDS011;5526;42.070;24.752;2023-02-24T11:25:21;23.38;;;16.15;;
10947;SDS011;5526;42.070;24.752;2023-02-24T11:27:51;34.72;;;16.27;;
10947;SDS011;5526;42.070;24.752;2023-02-24T11:30:22;20.00;;;15.43;;
10947;SDS011;5526;42.070;24.752;2023-02-24T11:35:54;25.33;;;17.48;;
10947;SDS011;5526;42.070;24.752;2023-02-24T11:38:33;22.42;;;16.10;;
10947;SDS011;5526;42.070;24.752;2023-02-24T11:41:07;26.38;;;17.08;;
10947;SDS011;5526;42.070;24.752;2023-02-24T11:43:42;24.23;;;16.55;;
10947;SDS011;5526;42.070;24.752;2023-02-24T11:46:16;19.90;;;15.77;;
10947;SDS011;5526;42.070;24.752;2023-02-24T11:48:50;22.70;;;16.30;;
10947;SDS011;5526;42.070;24.752;2023-02-24T11:51:21;18.92;;;15.13;;
10947;SDS011;5526;42.070;24.752;2023-02-24T11:53:52;23.20;;;16.00;;
10947;SDS011;5526;42.070;24.752;2023-02-24T11:56:24;20.35;;;15.25;;
10947;SDS011;5526;42.070;24.752;2023-02-24T11:58:56;22.10;;;16.17;;
10947;SDS011;5526;42.070;24.752;2023-02-24T12:01:28;20.50;;;15.23;;
10947;SDS011;5526;42.070;24.752;2023-02-24T12:04:05;23.70;;;15.68;;
10947;SDS011;5526;42.070;24.752;2023-02-24T12:06:43;21.08;;;15.57;;
10947;SDS011;5526;42.070;24.752;2023-02-24T12:09:17;21.83;;;16.20;;
10947;SDS011;5526;42.070;24.752;2023-02-24T12:11:51;22.83;;;16.35;;
10947;SDS011;5526;42.070;24.752;2023-02-24T12:14:25;23.42;;;17.05;;
10947;SDS011;5526;42.070;24.752;2023-02-24T12:17:00;24.50;;;17.35;;
10947;SDS011;5526;42.070;24.752;2023-02-24T12:19:39;23.38;;;16.67;;
10947;SDS011;5526;42.070;24.752;2023-02-24T12:22:16;26.50;;;18.00;;
10947;SDS011;5526;42.070;24.752;2023-02-24T12:24:45;26.83;;;18.27;;
10947;SDS011;5526;42.070;24.752;2023-02-24T12:27:18;28.58;;;18.13;;
10947;SDS011;5526;42.070;24.752;2023-02-24T12:30:05;23.92;;;17.40;;
10947;SDS011;5526;42.070;24.752;2023-02-24T12:32:59;27.00;;;18.55;;
10947;SDS011;5526;42.070;24.752;2023-02-24T12:35:40;27.88;;;19.38;;
10947;SDS011;5526;42.070;24.752;2023-02-24T12:41:15;24.13;;;17.65;;
10947;SDS011;5526;42.070;24.752;2023-02-24T12:43:54;23.58;;;16.35;;
10947;SDS011;5526;42.070;24.752;2023-02-24T12:46:32;20.48;;;16.13;;
10947;SDS011;5526;42.070;24.752;2023-02-24T12:49:13;21.92;;;16.67;;
10947;SDS011;5526;42.070;24.752;2023-02-24T12:51:54;23.48;;;17.15;;
10947;SDS011;5526;42.070;24.752;2023-02-24T12:54:33;23.02;;;17.35;;
10947;SDS011;5526;42.070;24.752;2023-02-24T12:57:08;24.30;;;17.80;;
10947;SDS011;5526;42.070;24.752;2023-02-24T12:59:41;23.13;;;16.40;;
10947;SDS011;5526;42.070;24.752;2023-02-24T13:02:11;22.55;;;17.23;;
10947;SDS011;5526;42.070;24.752;2023-02-24T13:04:48;22.20;;;16.70;;
10947;SDS011;5526;42.070;24.752;2023-02-24T13:07:33;24.17;;;18.98;;
10947;SDS011;5526;42.070;24.752;2023-02-24T13:10:10;22.55;;;17.23;;
10947;SDS011;5526;42.070;24.752;2023-02-24T13:12:47;26.42;;;19.85;;
10947;SDS011;5526;42.070;24.752;2023-02-24T13:15:19;21.38;;;17.63;;
10947;SDS011;5526;42.070;24.752;2023-02-24T13:17:50;20.90;;;17.38;;
10947;SDS011;5526;42.070;24.752;2023-02-24T13:20:25;21.55;;;16.33;;
10947;SDS011;5526;42.070;24.752;2023-02-24T13:22:56;21.02;;;16.15;;
10947;SDS011;5526;42.070;24.752;2023-02-24T13:25:26;20.52;;;16.20;;
10947;SDS011;5526;42.070;24.752;2023-02-24T13:27:57;23.50;;;17.80;;
10947;SDS011;5526;42.070;24.752;2023-02-24T13:30:36;25.33;;;21.80;;
10947;SDS011;5526;42.070;24.752;2023-02-24T13:33:20;24.98;;;19.63;;
10947;SDS011;5526;42.070;24.752;2023-02-24T13:35:49;24.48;;;19.85;;
10947;SDS011;5526;42.070;24.752;2023-02-24T13:38:35;23.17;;;20.75;;
10947;SDS011;5526;42.070;24.752;2023-02-24T13:41:07;23.55;;;18.63;;
10947;SDS011;5526;42.070;24.752;2023-02-24T13:43:52;19.13;;;16.70;;
10947;SDS011;5526;42.070;24.752;2023-02-24T13:46:22;21.10;;;17.73;;
10947;SDS011;5526;42.070;24.752;2023-02-24T13:48:59;19.45;;;17.15;;
10947;SDS011;5526;42.070;24.752;2023-02-24T13:51:41;19.65;;;16.90;;
10947;SDS011;5526;42.070;24.752;2023-02-24T14:00:33;23.63;;;17.33;;
10947;SDS011;5526;42.070;24.752;2023-02-24T14:03:08;23.98;;;17.98;;
10947;SDS011;5526;42.070;24.752;2023-02-24T14:05:38;20.80;;;18.17;;
10947;SDS011;5526;42.070;24.752;2023-02-24T14:08:12;22.15;;;18.42;;
10947;SDS011;5526;42.070;24.752;2023-02-24T14:10:53;21.95;;;17.40;;
10947;SDS011;5526;42.070;24.752;2023-02-24T14:13:22;20.15;;;17.65;;
10947;SDS011;5526;42.070;24.752;2023-02-24T14:15:54;19.10;;;16.83;;
10947;SDS011;5526;42.070;24.752;2023-02-24T14:18:24;21.58;;;18.23;;
10947;SDS011;5526;42.070;24.752;2023-02-24T14:20:52;25.05;;;18.05;;
10947;SDS011;5526;42.070;24.752;2023-02-24T14:23:22;24.15;;;17.00;;
10947;SDS011;5526;42.070;24.752;2023-02-24T14:25:53;23.00;;;18.02;;
10947;SDS011;5526;42.070;24.752;2023-02-24T14:28:25;28.08;;;18.30;;
10947;SDS011;5526;42.070;24.752;2023-02-24T14:30:57;20.65;;;16.67;;
10947;SDS011;5526;42.070;24.752;2023-02-24T14:33:27;20.08;;;16.70;;
10947;SDS011;5526;42.070;24.752;2023-02-24T14:35:57;21.55;;;18.13;;
10947;SDS011;5526;42.070;24.752;2023-02-24T14:38:29;20.65;;;17.10;;
10947;SDS011;5526;42.070;24.752;2023-02-24T14:40:58;21.65;;;17.02;;
10947;SDS011;5526;42.070;24.752;2023-02-24T14:43:26;23.75;;;17.30;;
10947;SDS011;5526;42.070;24.752;2023-02-24T14:45:53;21.70;;;17.90;;
10947;SDS011;5526;42.070;24.752;2023-02-24T14:48:24;28.33;;;18.63;;
10947;SDS011;5526;42.070;24.752;2023-02-24T14:50:52;20.35;;;16.50;;
10947;SDS011;5526;42.070;24.752;2023-02-24T14:53:23;21.17;;;17.38;;
10947;SDS011;5526;42.070;24.752;2023-02-24T14:55:55;20.75;;;17.65;;
10947;SDS011;5526;42.070;24.752;2023-02-24T14:58:26;22.70;;;17.08;;
10947;SDS011;5526;42.070;24.752;2023-02-24T15:00:58;22.45;;;18.30;;
10947;SDS011;5526;42.070;24.752;2023-02-24T15:03:31;21.83;;;17.80;;
10947;SDS011;5526;42.070;24.752;2023-02-24T15:06:03;21.67;;;17.70;;
10947;SDS011;5526;42.070;24.752;2023-02-24T15:08:33;24.42;;;18.42;;
10947;SDS011;5526;42.070;24.752;2023-02-24T15:11:06;20.95;;;17.95;;
10947;SDS011;5526;42.070;24.752;2023-02-24T15:13:44;23.30;;;19.00;;
10947;SDS011;5526;42.070;24.752;2023-02-24T15:16:16;22.98;;;18.13;;
10947;SDS011;5526;42.070;24.752;2023-02-24T15:18:50;24.73;;;18.67;;